createdAt,value
2019-05-26T00:01:56.318Z,9.57
2019-05-26T00:04:26.615Z,9.87
2019-05-26T00:06:56.929Z,10.83
2019-05-26T00:09:27.184Z,11.23
2019-05-26T00:11:57.516Z,12.03
2019-05-26T00:14:27.893Z,9.20
2019-05-26T00:16:58.195Z,13.23
2019-05-26T00:19:28.493Z,10.77
2019-05-26T00:21:58.820Z,13.60
2019-05-26T00:24:29.097Z,11.97
2019-05-26T00:26:59.472Z,14.43
2019-05-26T00:29:29.814Z,14.77
2019-05-26T00:32:00.175Z,11.17
2019-05-26T00:34:30.526Z,11.27
2019-05-26T00:37:00.899Z,12.37
2019-05-26T00:39:31.149Z,10.50
2019-05-26T00:42:01.529Z,12.13
2019-05-26T00:44:31.793Z,9.73
2019-05-26T00:47:02.082Z,9.53
2019-05-26T00:49:32.477Z,11.20
2019-05-26T00:52:02.793Z,10.57
2019-05-26T00:54:33.066Z,9.50
2019-05-26T00:57:03.472Z,9.50
2019-05-26T00:59:33.753Z,11.47
2019-05-26T01:02:04.065Z,9.60
2019-05-26T01:04:34.314Z,8.90
2019-05-26T01:07:04.631Z,9.13
2019-05-26T01:09:34.885Z,10.17
2019-05-26T01:12:05.189Z,8.47
2019-05-26T01:14:35.489Z,10.90
2019-05-26T01:17:05.789Z,10.20
2019-05-26T01:19:36.048Z,10.27
2019-05-26T01:22:06.376Z,11.23
2019-05-26T01:24:36.641Z,9.17
2019-05-26T01:27:06.928Z,9.53
2019-05-26T01:29:37.180Z,10.33
2019-05-26T01:32:07.476Z,9.27
2019-05-26T01:34:37.757Z,11.50
2019-05-26T01:37:08.032Z,9.77
2019-05-26T01:39:39.348Z,10.33
2019-05-26T01:42:10.720Z,9.17
2019-05-26T01:44:40.979Z,9.80
2019-05-26T01:47:11.281Z,9.97
2019-05-26T01:49:41.543Z,10.50
2019-05-26T01:52:11.836Z,9.87
2019-05-26T01:54:42.091Z,9.47
2019-05-26T01:57:12.370Z,11.43
2019-05-26T01:59:42.637Z,10.30
2019-05-26T02:02:14.005Z,11.57
2019-05-26T02:04:44.269Z,10.57
2019-05-26T02:07:14.966Z,11.40
2019-05-26T02:09:45.298Z,10.33
2019-05-26T02:12:16.671Z,11.37
2019-05-26T02:14:46.964Z,9.77
2019-05-26T02:17:17.421Z,10.63
2019-05-26T02:19:47.688Z,9.60
2019-05-26T02:22:17.982Z,9.63
2019-05-26T02:24:48.248Z,11.43
2019-05-26T02:27:18.524Z,10.93
2019-05-26T02:29:48.798Z,12.50
2019-05-26T02:32:19.096Z,12.20
2019-05-26T02:34:49.375Z,13.03
2019-05-26T02:37:19.635Z,9.80
2019-05-26T02:39:49.921Z,11.00
2019-05-26T02:42:20.178Z,12.60
2019-05-26T02:44:50.480Z,13.30
2019-05-26T02:47:20.750Z,11.97
2019-05-26T02:49:51.081Z,11.97
2019-05-26T02:52:21.365Z,12.53
2019-05-26T02:54:51.658Z,10.90
2019-05-26T02:57:22.349Z,13.40
2019-05-26T02:59:53.654Z,12.13
2019-05-26T03:02:23.908Z,12.13
2019-05-26T03:04:54.232Z,13.57
2019-05-26T03:07:27.778Z,11.93
2019-05-26T03:09:59.078Z,12.30
2019-05-26T03:12:31.281Z,14.90
2019-05-26T03:15:03.313Z,12.10
2019-05-26T03:17:35.509Z,12.90
2019-05-26T03:20:06.698Z,14.30
2019-05-26T03:22:39.207Z,11.17
2019-05-26T03:25:11.546Z,12.33
2019-05-26T03:27:41.873Z,12.07
2019-05-26T03:30:12.555Z,9.97
2019-05-26T03:32:42.881Z,11.23
2019-05-26T03:35:13.889Z,13.13
2019-05-26T03:37:44.181Z,11.97
2019-05-26T03:40:14.853Z,9.60
2019-05-26T03:42:45.121Z,11.27
2019-05-26T03:45:24.177Z,12.97
2019-05-26T03:47:54.481Z,9.73
2019-05-26T03:50:24.753Z,9.13
2019-05-26T03:52:55.024Z,9.37
2019-05-26T03:55:25.321Z,11.13
2019-05-26T03:57:55.656Z,12.43
2019-05-26T04:00:25.975Z,9.53
2019-05-26T04:02:56.269Z,9.30
2019-05-26T04:05:26.522Z,11.13
2019-05-26T04:07:56.884Z,11.33
2019-05-26T04:10:27.190Z,10.07
2019-05-26T04:12:57.474Z,13.87
2019-05-26T04:15:28.563Z,9.43
2019-05-26T04:17:58.824Z,11.03
2019-05-26T04:20:29.131Z,11.50
2019-05-26T04:22:59.419Z,12.43
2019-05-26T04:25:29.708Z,12.17
2019-05-26T04:27:59.975Z,12.07
2019-05-26T04:30:30.249Z,12.67
2019-05-26T04:33:00.594Z,11.00
2019-05-26T04:35:30.871Z,13.30
2019-05-26T04:38:01.169Z,10.97
2019-05-26T04:40:32.623Z,15.23
2019-05-26T04:43:02.925Z,10.40
2019-05-26T04:45:33.173Z,12.30
2019-05-26T04:48:03.473Z,12.33
2019-05-26T04:50:33.696Z,12.80
2019-05-26T04:53:06.790Z,15.43
2019-05-26T04:55:35.939Z,15.10
2019-05-26T04:58:06.247Z,11.93
2019-05-26T05:00:36.521Z,12.43
2019-05-26T05:03:06.848Z,13.90
2019-05-26T05:05:37.123Z,14.07
2019-05-26T05:08:08.416Z,12.77
2019-05-26T05:10:42.184Z,12.53
2019-05-26T05:13:10.579Z,11.53
2019-05-26T05:15:40.853Z,14.27
2019-05-26T05:18:11.192Z,15.13
2019-05-26T05:20:41.838Z,12.43
2019-05-26T05:23:12.235Z,11.30
2019-05-26T05:25:42.497Z,13.07
2019-05-26T05:28:12.830Z,11.23
2019-05-26T05:30:43.073Z,12.50
2019-05-26T05:33:13.407Z,14.80
2019-05-26T05:35:44.750Z,12.63
2019-05-26T05:38:15.036Z,12.73
2019-05-26T05:40:58.306Z,13.33
2019-05-26T05:43:17.255Z,11.87
2019-05-26T05:45:47.516Z,12.20
2019-05-26T05:48:17.829Z,13.03
2019-05-26T05:50:48.109Z,12.83
2019-05-26T05:53:18.433Z,11.87
2019-05-26T05:55:48.706Z,13.03
2019-05-26T05:58:18.993Z,10.07
2019-05-26T06:00:49.275Z,13.30
2019-05-26T06:03:19.630Z,11.23
2019-05-26T06:05:49.885Z,11.67
2019-05-26T06:08:21.128Z,12.60
2019-05-26T06:11:15.323Z,14.10
2019-05-26T06:13:34.318Z,12.17
2019-05-26T06:16:04.642Z,12.50
2019-05-26T06:18:34.891Z,9.93
2019-05-26T06:21:05.609Z,10.43
2019-05-26T06:23:36.932Z,11.20
2019-05-26T06:26:07.508Z,12.23
2019-05-26T06:28:37.833Z,11.20
2019-05-26T06:31:08.122Z,10.83
2019-05-26T06:33:38.452Z,10.20
2019-05-26T06:36:08.720Z,11.07
2019-05-26T06:38:39.049Z,12.23
2019-05-26T06:41:10.160Z,12.33
2019-05-26T06:43:40.701Z,10.87
2019-05-26T06:46:11.062Z,14.60
2019-05-26T06:48:42.093Z,13.93
2019-05-26T06:51:12.431Z,12.40
2019-05-26T06:53:42.723Z,10.70
2019-05-26T06:56:12.989Z,10.37
2019-05-26T06:58:43.881Z,10.43
2019-05-26T07:01:14.186Z,12.30
2019-05-26T07:03:49.755Z,9.47
2019-05-26T07:06:20.125Z,10.83
2019-05-26T07:08:50.461Z,10.47
2019-05-26T07:11:20.740Z,11.40
2019-05-26T07:13:51.165Z,12.17
2019-05-26T07:16:36.743Z,9.90
2019-05-26T07:18:53.379Z,11.80
2019-05-26T07:21:23.642Z,9.50
2019-05-26T07:23:53.943Z,12.73
2019-05-26T07:26:24.203Z,10.57
2019-05-26T07:28:54.517Z,9.90
2019-05-26T07:31:24.838Z,10.83
2019-05-26T07:33:55.139Z,11.20
2019-05-26T07:36:25.400Z,9.83
2019-05-26T07:38:55.713Z,12.13
2019-05-26T07:41:25.976Z,9.50
2019-05-26T07:43:56.297Z,10.47
2019-05-26T07:46:26.616Z,10.50
2019-05-26T07:48:58.214Z,8.33
2019-05-26T07:51:28.536Z,9.57
2019-05-26T07:53:58.853Z,9.93
2019-05-26T07:56:29.122Z,7.63
2019-05-26T07:58:59.468Z,7.50
2019-05-26T08:01:35.833Z,8.37
2019-05-26T08:04:01.652Z,9.17
2019-05-26T08:06:32.942Z,7.90
2019-05-26T08:09:03.299Z,9.47
2019-05-26T08:11:33.662Z,8.53
2019-05-26T08:14:04.146Z,8.10
2019-05-26T08:16:34.422Z,8.00
2019-05-26T08:19:04.800Z,8.43
2019-05-26T08:21:35.092Z,8.67
2019-05-26T08:24:05.367Z,7.37
2019-05-26T08:26:35.664Z,9.27
2019-05-26T08:29:05.941Z,6.83
2019-05-26T08:31:36.231Z,8.43
2019-05-26T08:34:06.549Z,8.03
2019-05-26T08:36:37.217Z,7.03
2019-05-26T08:39:09.208Z,9.93
2019-05-26T08:41:39.518Z,8.00
2019-05-26T08:44:10.037Z,7.50
2019-05-26T08:46:41.402Z,7.73
2019-05-26T08:49:11.711Z,7.73
2019-05-26T08:51:47.369Z,7.70
2019-05-26T08:54:20.411Z,9.37
2019-05-26T08:56:50.668Z,9.17
2019-05-26T08:59:21.266Z,9.80
2019-05-26T09:01:53.604Z,9.27
2019-05-26T09:04:24.282Z,10.30
2019-05-26T09:06:55.001Z,8.93
2019-05-26T09:09:25.504Z,9.43
2019-05-26T09:11:56.293Z,8.10
2019-05-26T09:14:27.005Z,7.80
2019-05-26T09:16:57.547Z,8.40
2019-05-26T09:19:49.694Z,8.70
2019-05-26T09:22:21.779Z,8.00
2019-05-26T09:24:59.119Z,9.00
2019-05-26T09:27:30.193Z,8.37
2019-05-26T09:30:00.534Z,8.87
2019-05-26T09:32:31.426Z,8.10
2019-05-26T09:35:01.717Z,7.57
2019-05-26T09:37:42.936Z,8.37
2019-05-26T09:40:11.810Z,13.93
2019-05-26T09:42:42.279Z,10.07
2019-05-26T09:45:14.621Z,9.55
2019-05-26T09:47:46.343Z,9.03
2019-05-26T09:50:17.050Z,10.20
2019-05-26T09:52:48.250Z,7.92
2019-05-26T09:55:19.050Z,8.67
2019-05-26T09:57:49.495Z,8.13
2019-05-26T10:00:19.951Z,9.83
2019-05-26T10:02:50.319Z,11.57
2019-05-26T10:05:20.641Z,76.20
2019-05-26T10:07:50.888Z,7.67
2019-05-26T10:10:22.290Z,7.10
2019-05-26T10:12:53.362Z,7.55
2019-05-26T10:15:24.812Z,7.62
2019-05-26T10:17:55.617Z,7.00
2019-05-26T10:20:26.114Z,6.75
2019-05-26T10:22:56.499Z,6.45
2019-05-26T10:25:26.760Z,7.62
2019-05-26T10:27:57.057Z,9.88
2019-05-26T10:30:27.465Z,6.87
2019-05-26T10:32:58.157Z,6.10
2019-05-26T10:35:28.424Z,6.60
2019-05-26T10:37:58.774Z,6.30
2019-05-26T10:40:29.756Z,6.67
2019-05-26T10:43:00.059Z,6.67
2019-05-26T10:45:34.113Z,6.53
2019-05-26T10:48:04.144Z,6.00
2019-05-26T10:50:35.295Z,5.20
2019-05-26T10:53:07.940Z,5.15
2019-05-26T10:55:39.087Z,5.78
2019-05-26T10:58:09.418Z,5.08
2019-05-26T11:00:40.776Z,4.83
2019-05-26T11:03:11.210Z,5.30
2019-05-26T11:05:41.536Z,6.92
2019-05-26T11:08:11.867Z,6.28
2019-05-26T11:10:43.231Z,4.85
2019-05-26T11:13:13.479Z,3.98
2019-05-26T11:15:43.961Z,3.62
2019-05-26T11:18:14.238Z,4.10
2019-05-26T11:20:44.536Z,6.53
2019-05-26T11:23:15.925Z,16.27
2019-05-26T11:25:46.184Z,8.70
2019-05-26T11:28:16.556Z,3.67
2019-05-26T11:30:47.170Z,3.05
2019-05-26T11:33:17.530Z,3.27
2019-05-26T11:35:47.829Z,4.37
2019-05-26T11:38:18.060Z,3.05
2019-05-26T11:40:49.421Z,2.92
2019-05-26T11:43:19.711Z,2.85
2019-05-26T11:45:50.040Z,2.98
2019-05-26T11:48:20.429Z,3.10
2019-05-26T11:50:50.689Z,3.22
2019-05-26T11:53:20.974Z,4.53
2019-05-26T11:55:52.327Z,2.90
2019-05-26T11:58:22.705Z,5.22
2019-05-26T12:00:52.986Z,4.58
2019-05-26T12:03:23.473Z,4.62
2019-05-26T12:05:53.737Z,2.45
2019-05-26T12:08:24.014Z,2.75
2019-05-26T12:10:54.358Z,4.45
2019-05-26T12:13:24.711Z,2.60
2019-05-26T12:15:55.001Z,3.10
2019-05-26T12:18:25.282Z,2.50
2019-05-26T12:20:55.557Z,3.30
2019-05-26T12:23:25.824Z,3.50
2019-05-26T12:25:56.059Z,2.17
2019-05-26T12:28:26.468Z,2.27
2019-05-26T12:30:56.796Z,2.30
2019-05-26T12:33:27.073Z,2.12
2019-05-26T12:35:57.320Z,2.62
2019-05-26T12:38:30.500Z,2.00
2019-05-26T12:41:00.887Z,1.90
2019-05-26T12:43:31.182Z,1.90
2019-05-26T12:46:01.446Z,1.80
2019-05-26T12:48:32.112Z,1.90
2019-05-26T12:51:02.356Z,1.90
2019-05-26T12:53:32.684Z,2.62
2019-05-26T12:56:03.043Z,2.37
2019-05-26T12:58:35.110Z,1.77
2019-05-26T13:01:05.624Z,2.08
2019-05-26T13:03:35.922Z,2.10
2019-05-26T13:06:07.077Z,1.60
2019-05-26T13:08:37.391Z,1.80
2019-05-26T13:11:07.685Z,1.70
2019-05-26T13:13:37.935Z,1.70
2019-05-26T13:16:08.256Z,1.75
2019-05-26T13:18:38.542Z,1.70
2019-05-26T13:21:08.821Z,1.72
2019-05-26T13:23:39.090Z,1.95
2019-05-26T13:26:09.436Z,1.60
2019-05-26T13:28:39.714Z,3.05
2019-05-26T13:31:10.085Z,1.80
2019-05-26T13:33:40.388Z,2.15
2019-05-26T13:36:10.673Z,1.82
2019-05-26T13:38:40.929Z,2.35
2019-05-26T13:41:11.264Z,2.22
2019-05-26T13:43:41.534Z,1.85
2019-05-26T13:46:12.711Z,2.25
2019-05-26T13:48:43.114Z,2.30
2019-05-26T13:51:13.501Z,1.90
2019-05-26T13:53:43.753Z,1.70
2019-05-26T13:56:14.029Z,1.80
2019-05-26T13:58:45.412Z,2.00
2019-05-26T14:01:15.717Z,1.80
2019-05-26T14:03:45.977Z,2.40
2019-05-26T14:06:16.289Z,2.10
2019-05-26T14:08:46.557Z,2.15
2019-05-26T14:11:16.847Z,2.08
2019-05-26T14:13:47.314Z,4.67
2019-05-26T14:16:18.125Z,2.08
2019-05-26T14:18:50.285Z,2.00
2019-05-26T14:21:20.590Z,2.30
2019-05-26T14:23:51.950Z,2.30
2019-05-26T14:26:22.252Z,2.17
2019-05-26T14:28:52.525Z,2.62
2019-05-26T14:31:22.809Z,1.80
2019-05-26T14:33:53.109Z,2.42
2019-05-26T14:36:23.388Z,2.00
2019-05-26T14:38:53.666Z,1.90
2019-05-26T14:41:23.956Z,2.30
2019-05-26T14:43:54.225Z,3.98
2019-05-26T14:46:24.556Z,3.22
2019-05-26T14:48:54.781Z,2.15
2019-05-26T14:51:25.512Z,2.05
2019-05-26T14:53:55.807Z,2.10
2019-05-26T14:56:27.588Z,2.37
2019-05-26T14:58:58.135Z,2.87
2019-05-26T15:01:28.462Z,2.08
2019-05-26T15:03:58.848Z,1.90
2019-05-26T15:06:30.288Z,1.92
2019-05-26T15:09:00.737Z,2.00
2019-05-26T15:11:31.106Z,1.80
2019-05-26T15:14:04.863Z,1.77
2019-05-26T15:16:35.214Z,2.15
2019-05-26T15:19:05.749Z,2.20
2019-05-26T15:21:36.008Z,2.10
2019-05-26T15:24:06.618Z,3.35
2019-05-26T15:26:37.102Z,2.25
2019-05-26T15:29:07.513Z,3.33
2019-05-26T15:31:38.791Z,2.10
2019-05-26T15:34:09.253Z,2.10
2019-05-26T15:36:41.349Z,1.70
2019-05-26T15:39:20.838Z,2.05
2019-05-26T15:41:47.418Z,2.05
2019-05-26T15:44:18.612Z,2.05
2019-05-26T15:46:49.590Z,2.83
2019-05-26T15:49:20.108Z,2.12
2019-05-26T15:51:53.345Z,1.87
2019-05-26T15:54:27.211Z,1.90
2019-05-26T15:57:02.742Z,2.33
2019-05-26T15:59:33.581Z,2.30
2019-05-26T16:02:04.785Z,2.00
2019-05-26T16:04:35.514Z,5.40
2019-05-26T16:07:06.108Z,1.80
2019-05-26T16:09:36.720Z,1.57
2019-05-26T16:12:07.056Z,1.80
2019-05-26T16:14:37.316Z,3.75
2019-05-26T16:17:07.916Z,1.90
2019-05-26T16:19:38.635Z,3.10
2019-05-26T16:22:09.206Z,1.98
2019-05-26T16:24:40.317Z,1.60
2019-05-26T16:27:19.085Z,1.90
2019-05-26T16:29:47.548Z,2.87
2019-05-26T16:32:19.259Z,2.17
2019-05-26T16:34:53.592Z,2.00
2019-05-26T16:37:26.026Z,1.60
2019-05-26T16:40:08.802Z,2.25
2019-05-26T16:42:39.569Z,1.90
2019-05-26T16:45:10.626Z,2.37
2019-05-26T16:47:40.930Z,2.15
2019-05-26T16:50:11.245Z,1.60
2019-05-26T16:52:41.489Z,1.77
2019-05-26T16:55:12.261Z,1.90
2019-05-26T16:57:42.586Z,1.80
2019-05-26T17:00:12.960Z,1.65
2019-05-26T17:02:43.209Z,1.98
2019-05-26T17:05:13.591Z,1.80
2019-05-26T17:07:43.863Z,2.17
2019-05-26T17:10:14.149Z,5.83
2019-05-26T17:12:44.510Z,3.60
2019-05-26T17:15:14.934Z,4.83
2019-05-26T17:17:45.182Z,2.40
2019-05-26T17:20:15.947Z,2.70
2019-05-26T17:22:46.208Z,2.83
2019-05-26T17:25:16.600Z,2.02
2019-05-26T17:27:46.844Z,2.60
2019-05-26T17:30:17.223Z,2.40
2019-05-26T17:32:47.564Z,1.70
2019-05-26T17:35:18.094Z,2.27
2019-05-26T17:37:48.357Z,3.45
2019-05-26T17:40:22.361Z,2.27
2019-05-26T17:42:52.809Z,2.80
2019-05-26T17:45:23.090Z,4.37
2019-05-26T17:47:53.346Z,2.70
2019-05-26T17:50:24.688Z,2.72
2019-05-26T17:52:55.108Z,2.50
2019-05-26T17:55:25.381Z,2.70
2019-05-26T17:57:55.648Z,3.27
2019-05-26T18:00:26.346Z,2.62
2019-05-26T18:02:56.769Z,2.60
2019-05-26T18:05:27.065Z,3.30
2019-05-26T18:07:57.366Z,2.37
2019-05-26T18:10:27.637Z,2.62
2019-05-26T18:12:57.929Z,3.58
2019-05-26T18:15:28.512Z,3.05
2019-05-26T18:17:59.120Z,2.20
2019-05-26T18:20:30.473Z,3.42
2019-05-26T18:23:00.812Z,2.52
2019-05-26T18:25:32.133Z,2.12
2019-05-26T18:28:02.825Z,3.00
2019-05-26T18:30:33.934Z,2.75
2019-05-26T18:33:04.320Z,2.92
2019-05-26T18:35:34.613Z,1.70
2019-05-26T18:38:13.548Z,2.55
2019-05-26T18:40:43.932Z,3.10
2019-05-26T18:43:14.468Z,6.17
2019-05-26T18:45:44.926Z,1.90
2019-05-26T18:48:15.249Z,2.22
2019-05-26T18:50:45.660Z,2.12
2019-05-26T18:53:15.932Z,3.20
2019-05-26T18:55:46.306Z,3.10
2019-05-26T18:58:16.677Z,1.90
2019-05-26T19:00:46.961Z,2.12
2019-05-26T19:03:17.321Z,2.05
2019-05-26T19:05:47.797Z,4.35
2019-05-26T19:08:18.096Z,1.80
2019-05-26T19:10:48.372Z,2.40
2019-05-26T19:13:18.663Z,2.98
2019-05-26T19:15:48.920Z,3.25
2019-05-26T19:18:20.630Z,3.22
2019-05-26T19:20:51.746Z,3.98
2019-05-26T19:23:22.852Z,3.95
2019-05-26T19:25:53.291Z,5.50
2019-05-26T19:28:23.674Z,6.25
2019-05-26T19:30:54.802Z,4.78
2019-05-26T19:33:25.870Z,5.12
2019-05-26T19:35:56.233Z,5.15
2019-05-26T19:38:26.737Z,5.05
2019-05-26T19:40:58.246Z,3.40
2019-05-26T19:43:28.707Z,3.45
2019-05-26T19:45:58.987Z,4.10
2019-05-26T19:48:36.553Z,6.80
2019-05-26T19:51:01.684Z,4.50
2019-05-26T19:53:33.263Z,3.47
2019-05-26T19:56:03.789Z,4.17
2019-05-26T19:58:35.868Z,4.92
2019-05-26T20:01:06.316Z,4.30
2019-05-26T20:03:37.047Z,2.27
2019-05-26T20:06:07.617Z,2.15
2019-05-26T20:08:44.757Z,1.85
2019-05-26T20:11:15.018Z,1.70
2019-05-26T20:13:45.563Z,2.37
2019-05-26T20:16:15.910Z,3.27
2019-05-26T20:18:47.514Z,1.70
2019-05-26T20:21:19.212Z,3.55
2019-05-26T20:23:50.227Z,5.08
2019-05-26T20:26:20.749Z,2.22
2019-05-26T20:28:51.642Z,2.08
2019-05-26T20:31:24.063Z,3.52
2019-05-26T20:33:55.706Z,3.10
2019-05-26T20:36:26.409Z,1.98
2019-05-26T20:38:57.093Z,1.80
2019-05-26T20:41:30.301Z,2.70
2019-05-26T20:44:05.655Z,1.98
2019-05-26T20:46:36.785Z,3.00
2019-05-26T20:49:10.205Z,1.82
2019-05-26T20:51:41.853Z,2.15
2019-05-26T20:54:57.925Z,2.33
2019-05-26T20:57:28.532Z,2.10
2019-05-26T21:00:04.797Z,3.87
2019-05-26T21:02:37.977Z,2.22
2019-05-26T21:05:12.550Z,2.30
2019-05-26T21:07:45.938Z,1.77
2019-05-26T21:10:40.423Z,2.67
2019-05-26T21:13:12.494Z,2.00
2019-05-26T21:15:49.947Z,2.67
2019-05-26T21:18:33.803Z,2.02
2019-05-26T21:21:13.721Z,2.72
2019-05-26T21:23:45.581Z,2.72
2019-05-26T21:26:20.451Z,2.35
2019-05-26T21:28:54.232Z,3.60
2019-05-26T21:31:25.102Z,2.65
2019-05-26T21:33:58.507Z,3.47
2019-05-26T21:36:33.790Z,2.20
2019-05-26T21:39:06.234Z,4.90
2019-05-26T21:41:37.132Z,1.95
2019-05-26T21:44:11.013Z,2.27
2019-05-26T21:46:43.795Z,2.20
2019-05-26T21:49:14.660Z,2.65
2019-05-26T21:51:48.122Z,2.60
2019-05-26T21:54:18.804Z,2.65
2019-05-26T21:56:50.227Z,4.85
2019-05-26T21:59:20.557Z,2.42
2019-05-26T22:01:50.902Z,2.80
2019-05-26T22:04:21.246Z,2.40
2019-05-26T22:06:52.184Z,4.00
2019-05-26T22:09:22.512Z,2.50
2019-05-26T22:11:53.226Z,2.73
2019-05-26T22:14:24.033Z,3.60
2019-05-26T22:16:54.406Z,2.87
2019-05-26T22:19:24.834Z,2.20
2019-05-26T22:21:55.274Z,5.47
2019-05-26T22:24:25.736Z,2.85
2019-05-26T22:26:56.532Z,2.33
2019-05-26T22:29:27.004Z,3.58
2019-05-26T22:31:57.518Z,2.47
2019-05-26T22:34:28.096Z,2.10
2019-05-26T22:37:06.663Z,4.42
2019-05-26T22:39:37.539Z,3.55
2019-05-26T22:42:08.297Z,2.60
2019-05-26T22:44:38.617Z,5.50
2019-05-26T22:47:09.871Z,3.15
2019-05-26T22:49:40.986Z,2.33
2019-05-26T22:52:11.529Z,2.52
2019-05-26T22:54:42.000Z,2.87
2019-05-26T22:57:13.093Z,2.10
2019-05-26T22:59:43.663Z,3.22
2019-05-26T23:02:15.729Z,2.20
2019-05-26T23:04:48.119Z,3.40
2019-05-26T23:07:18.508Z,4.37
2019-05-26T23:09:49.888Z,4.33
2019-05-26T23:12:21.810Z,3.67
2019-05-26T23:14:53.286Z,2.10
2019-05-26T23:17:25.967Z,2.30
2019-05-26T23:19:58.025Z,2.70
2019-05-26T23:22:28.414Z,2.50
2019-05-26T23:24:58.708Z,3.50
2019-05-26T23:27:28.982Z,3.10
2019-05-26T23:29:59.266Z,3.72
2019-05-26T23:32:29.569Z,6.70
2019-05-26T23:34:59.861Z,5.57
2019-05-26T23:37:30.152Z,5.87
2019-05-26T23:40:00.439Z,5.33
2019-05-26T23:42:30.729Z,5.30
2019-05-26T23:45:01.057Z,5.67
2019-05-26T23:47:31.404Z,5.20
2019-05-26T23:50:01.818Z,4.03
2019-05-26T23:52:32.179Z,3.60
2019-05-26T23:55:02.450Z,3.55
2019-05-26T23:57:33.733Z,3.35
